aviador You're here:

PAPH Decoded Metar

PORT HEIDEN in AK, USA
Report Time2018-06-23 05:56:00
UTC Time2018-06-23 06:18:15
Flight Rules vfr VFR
Wind020° at 10 kt
W.Decomp.*RWY 05: 6.9 kt HW 7.2 kt LCW
RWY 31: 5.9 kt HW 8.1 kt RCW
W.Rank020° ranks 19
Current wind is above 020° avg. (9.0)
Visibility9999 m
Phenomena:N/A
Clouds:Overcast 037 Hf
Expected CloudBase > 800 ft AGL from Temp-Dew spread
Ceiling3,700 ft
Temp09°C (ISA -6)
Dew Point07°C (87% RH)
AAT4.7°C
QNH1019 hPa
Density Alt-669 ft
Elevation95 ft
Report Wrong Elevation
Raw Report
PAPH 230556Z AUTO 02010KT 10SM OVC037 09/07 A3010 RMK AO2
RAB0457E18 SLP195 P0000 60000 T00940067 10128 20094 53002=

Extra information for PAPH:More info

Metar Taf Metar & Taf Last 4 Metars F.Rules Stats Wind Profile Meteogram Temp Stats Airport Information Weather charts Add Link Nearby VenuesMetar ALERT Operation Metar Decoded Social comments

AIRNAV info for PAPH